sensor_id;sensor_type;location;lat;lon;timestamp;pressure;altitude;pressure_sealevel;temperature;humidity
58739;BME280;44512;53.046;18.604;2023-09-19T00:02:34;100775.14;;;23.08;51.82
58739;BME280;44512;53.046;18.604;2023-09-19T00:13:03;100779.55;;;23.09;51.87
58739;BME280;44512;53.046;18.604;2023-09-19T00:23:31;100785.09;;;23.04;52.08
58739;BME280;44512;53.046;18.604;2023-09-19T00:33:59;100776.27;;;23.02;52.26
58739;BME280;44512;53.046;18.604;2023-09-19T00:44:27;100770.77;;;22.97;52.42
58739;BME280;44512;53.046;18.604;2023-09-19T00:54:56;100765.79;;;22.99;52.46
58739;BME280;44512;53.046;18.604;2023-09-19T01:05:24;100769.13;;;22.96;52.67
58739;BME280;44512;53.046;18.604;2023-09-19T01:16:00;100753.12;;;22.93;52.88
58739;BME280;44512;53.046;18.604;2023-09-19T01:36:49;100737.10;;;22.84;53.34
58739;BME280;44512;53.046;18.604;2023-09-19T02:08:19;100723.92;;;22.71;54.27
58739;BME280;44512;53.046;18.604;2023-09-19T02:18:43;100729.75;;;22.65;54.68
58739;BME280;44512;53.046;18.604;2023-09-19T02:29:11;100721.48;;;22.59;55.16
58739;BME280;44512;53.046;18.604;2023-09-19T02:39:39;100730.31;;;22.56;55.42
58739;BME280;44512;53.046;18.604;2023-09-19T02:50:08;100715.18;;;22.49;55.84
58739;BME280;44512;53.046;18.604;2023-09-19T03:00:36;100710.20;;;22.51;56.51
58739;BME280;44512;53.046;18.604;2023-09-19T03:11:05;100740.55;;;22.41;57.49
58739;BME280;44512;53.046;18.604;2023-09-19T03:21:32;100748.01;;;22.35;58.23
58739;BME280;44512;53.046;18.604;2023-09-19T03:32:01;100756.58;;;22.23;58.55
58739;BME280;44512;53.046;18.604;2023-09-19T03:42:29;100751.58;;;22.10;58.91
58739;BME280;44512;53.046;18.604;2023-09-19T03:52:57;100790.74;;;21.97;61.21
58739;BME280;44512;53.046;18.604;2023-09-19T04:03:26;100787.41;;;21.84;62.70
58739;BME280;44512;53.046;18.604;2023-09-19T04:13:54;100785.74;;;21.73;63.39
58739;BME280;44512;53.046;18.604;2023-09-19T04:24:23;100759.83;;;21.69;64.19
58739;BME280;44512;53.046;18.604;2023-09-19T04:34:51;100764.80;;;21.67;64.50
58739;BME280;44512;53.046;18.604;2023-09-19T04:45:19;100762.58;;;21.64;65.00
58739;BME280;44512;53.046;18.604;2023-09-19T04:55:51;100746.05;;;21.59;65.36
58739;BME280;44512;53.046;18.604;2023-09-19T05:06:16;100739.18;;;21.56;65.62
58739;BME280;44512;53.046;18.604;2023-09-19T05:16:44;100742.17;;;21.50;65.94
58739;BME280;44512;53.046;18.604;2023-09-19T05:27:12;100748.23;;;21.42;66.30
58739;BME280;44512;53.046;18.604;2023-09-19T05:37:41;100758.11;;;21.32;66.67
58739;BME280;44512;53.046;18.604;2023-09-19T05:48:11;100757.22;;;21.22;67.10
58739;BME280;44512;53.046;18.604;2023-09-19T05:58:37;100760.77;;;21.17;67.38
58739;BME280;44512;53.046;18.604;2023-09-19T06:09:06;100766.55;;;21.11;67.81
58739;BME280;44512;53.046;18.604;2023-09-19T06:19:34;100786.08;;;21.09;68.22
58739;BME280;44512;53.046;18.604;2023-09-19T06:30:03;100795.39;;;21.03;68.59
58739;BME280;44512;53.046;18.604;2023-09-19T06:40:31;100794.32;;;21.04;68.65
58739;BME280;44512;53.046;18.604;2023-09-19T06:50:59;100822.36;;;21.01;68.68
58739;BME280;44512;53.046;18.604;2023-09-19T07:01:28;100831.11;;;20.93;68.86
58739;BME280;44512;53.046;18.604;2023-09-19T07:11:56;100839.81;;;20.74;68.92
58739;BME280;44512;53.046;18.604;2023-09-19T07:22:26;100850.75;;;20.64;68.78
58739;BME280;44512;53.046;18.604;2023-09-19T07:32:53;100845.49;;;20.58;68.99
58739;BME280;44512;53.046;18.604;2023-09-19T07:43:21;100858.33;;;20.47;69.21
58739;BME280;44512;53.046;18.604;2023-09-19T07:53:49;100855.23;;;20.43;69.32
58739;BME280;44512;53.046;18.604;2023-09-19T08:04:18;100879.46;;;20.46;69.25
58739;BME280;44512;53.046;18.604;2023-09-19T08:14:46;100881.90;;;20.43;69.17
58739;BME280;44512;53.046;18.604;2023-09-19T08:25:17;100878.05;;;20.44;69.06
58739;BME280;44512;53.046;18.604;2023-09-19T08:35:43;100893.41;;;20.40;68.94
58739;BME280;44512;53.046;18.604;2023-09-19T08:46:15;100897.99;;;20.29;69.04
58739;BME280;44512;53.046;18.604;2023-09-19T08:56:41;100918.65;;;20.32;69.16
58739;BME280;44512;53.046;18.604;2023-09-19T09:07:12;100929.63;;;20.32;68.96
58739;BME280;44512;53.046;18.604;2023-09-19T09:17:36;100942.23;;;20.27;68.96
58739;BME280;44512;53.046;18.604;2023-09-19T09:28:05;100943.34;;;20.26;68.83
58739;BME280;44512;53.046;18.604;2023-09-19T09:49:04;100942.20;;;20.49;68.52
58739;BME280;44512;53.046;18.604;2023-09-19T10:10:02;100944.30;;;20.69;67.36
58739;BME280;44512;53.046;18.604;2023-09-19T10:20:28;100978.45;;;20.73;66.12
58739;BME280;44512;53.046;18.604;2023-09-19T10:30:54;100982.63;;;20.81;65.44
58739;BME280;44512;53.046;18.604;2023-09-19T10:41:25;100990.69;;;20.93;65.20
58739;BME280;44512;53.046;18.604;2023-09-19T10:57:09;100990.57;;;21.10;63.76
58739;BME280;44512;53.046;18.604;2023-09-19T11:07:56;100998.07;;;21.19;62.97
58739;BME280;44512;53.046;18.604;2023-09-19T11:18:50;101003.58;;;21.19;62.17
58739;BME280;44512;53.046;18.604;2023-09-19T11:28:34;100992.57;;;21.19;61.71
58739;BME280;44512;53.046;18.604;2023-09-19T11:39:02;100995.63;;;21.28;60.74
58739;BME280;44512;53.046;18.604;2023-09-19T11:49:31;100978.93;;;21.40;58.48
58739;BME280;44512;53.046;18.604;2023-09-19T11:59:58;100999.68;;;21.52;56.75
58739;BME280;44512;53.046;18.604;2023-09-19T12:10:27;101003.88;;;21.65;55.29
58739;BME280;44512;53.046;18.604;2023-09-19T12:20:55;101008.36;;;21.76;53.90
58739;BME280;44512;53.046;18.604;2023-09-19T12:31:23;101023.53;;;21.84;53.93
58739;BME280;44512;53.046;18.604;2023-09-19T12:41:52;101032.66;;;21.90;53.71
58739;BME280;44512;53.046;18.604;2023-09-19T12:52:20;101033.52;;;22.00;53.57
58739;BME280;44512;53.046;18.604;2023-09-19T13:13:23;101024.23;;;22.12;51.21
58739;BME280;44512;53.046;18.604;2023-09-19T13:23:45;101023.45;;;22.26;50.49
58739;BME280;44512;53.046;18.604;2023-09-19T13:34:13;101035.09;;;22.39;48.59
58739;BME280;44512;53.046;18.604;2023-09-19T13:44:42;101047.80;;;22.50;47.69
58739;BME280;44512;53.046;18.604;2023-09-19T13:55:10;101050.60;;;22.70;46.19
58739;BME280;44512;53.046;18.604;2023-09-19T14:05:38;101059.45;;;22.87;43.46
58739;BME280;44512;53.046;18.604;2023-09-19T14:16:07;101073.83;;;23.05;40.80
58739;BME280;44512;53.046;18.604;2023-09-19T14:26:36;101089.33;;;23.26;40.41
58739;BME280;44512;53.046;18.604;2023-09-19T14:37:03;101087.63;;;23.56;39.82
58739;BME280;44512;53.046;18.604;2023-09-19T14:47:33;101094.80;;;23.77;39.55
58739;BME280;44512;53.046;18.604;2023-09-19T14:58:00;101092.01;;;23.93;39.52
58739;BME280;44512;53.046;18.604;2023-09-19T15:08:28;101098.93;;;23.95;40.29
58739;BME280;44512;53.046;18.604;2023-09-19T15:18:57;101093.66;;;24.04;39.79
58739;BME280;44512;53.046;18.604;2023-09-19T15:29:25;101109.12;;;24.10;40.43
58739;BME280;44512;53.046;18.604;2023-09-19T15:39:53;101116.34;;;23.96;39.65
58739;BME280;44512;53.046;18.604;2023-09-19T15:50:22;101121.62;;;23.77;39.61
58739;BME280;44512;53.046;18.604;2023-09-19T16:00:50;101127.97;;;23.57;40.03
58739;BME280;44512;53.046;18.604;2023-09-19T16:11:18;101128.54;;;23.33;40.43
58739;BME280;44512;53.046;18.604;2023-09-19T16:21:47;101127.70;;;23.18;41.02
58739;BME280;44512;53.046;18.604;2023-09-19T16:32:15;101132.38;;;23.02;41.37
58739;BME280;44512;53.046;18.604;2023-09-19T16:42:43;101135.08;;;22.86;41.78
58739;BME280;44512;53.046;18.604;2023-09-19T16:53:12;101146.62;;;22.73;42.20
58739;BME280;44512;53.046;18.604;2023-09-19T17:03:43;101146.55;;;22.58;42.58
58739;BME280;44512;53.046;18.604;2023-09-19T17:14:08;101155.87;;;22.42;42.97
58739;BME280;44512;53.046;18.604;2023-09-19T17:24:37;101165.73;;;22.27;43.31
58739;BME280;44512;53.046;18.604;2023-09-19T17:35:05;101175.02;;;22.11;43.89
58739;BME280;44512;53.046;18.604;2023-09-19T17:45:34;101187.29;;;21.93;44.30
58739;BME280;44512;53.046;18.604;2023-09-19T17:56:06;101207.33;;;21.83;44.50
58739;BME280;44512;53.046;18.604;2023-09-19T18:06:31;101213.85;;;21.72;44.77
58739;BME280;44512;53.046;18.604;2023-09-19T18:16:58;101220.93;;;21.63;45.02
58739;BME280;44512;53.046;18.604;2023-09-19T18:27:27;101224.15;;;21.55;45.28
58739;BME280;44512;53.046;18.604;2023-09-19T18:37:55;101238.69;;;21.45;45.53
58739;BME280;44512;53.046;18.604;2023-09-19T18:48:23;101226.63;;;21.29;45.73
58739;BME280;44512;53.046;18.604;2023-09-19T18:58:52;101243.45;;;21.06;45.96
58739;BME280;44512;53.046;18.604;2023-09-19T19:09:20;101252.67;;;20.95;46.04
58739;BME280;44512;53.046;18.604;2023-09-19T19:19:49;101255.87;;;20.87;46.23
58739;BME280;44512;53.046;18.604;2023-09-19T19:30:17;101255.17;;;20.74;46.42
58739;BME280;44512;53.046;18.604;2023-09-19T19:40:45;101268.78;;;20.64;46.59
58739;BME280;44512;53.046;18.604;2023-09-19T19:51:14;101258.97;;;20.51;46.72
58739;BME280;44512;53.046;18.604;2023-09-19T20:01:42;101256.04;;;20.41;46.67
58739;BME280;44512;53.046;18.604;2023-09-19T20:12:10;101270.99;;;20.28;46.68
58739;BME280;44512;53.046;18.604;2023-09-19T20:22:39;101269.66;;;20.14;46.79
58739;BME280;44512;53.046;18.604;2023-09-19T20:33:10;101262.83;;;20.00;46.90
58739;BME280;44512;53.046;18.604;2023-09-19T20:43:35;101272.73;;;19.84;47.14
58739;BME280;44512;53.046;18.604;2023-09-19T20:54:04;101261.16;;;19.65;47.77
58739;BME280;44512;53.046;18.604;2023-09-19T21:04:32;101275.57;;;19.44;48.59
58739;BME280;44512;53.046;18.604;2023-09-19T21:15:00;101276.59;;;19.26;48.83
58739;BME280;44512;53.046;18.604;2023-09-19T21:25:29;101277.63;;;19.08;49.08
58739;BME280;44512;53.046;18.604;2023-09-19T21:35:57;101281.71;;;18.94;48.97
58739;BME280;44512;53.046;18.604;2023-09-19T21:46:26;101278.64;;;18.79;49.15
58739;BME280;44512;53.046;18.604;2023-09-19T21:56:54;101275.89;;;18.55;49.75
58739;BME280;44512;53.046;18.604;2023-09-19T22:07:22;101276.03;;;18.37;49.88
58739;BME280;44512;53.046;18.604;2023-09-19T22:17:51;101269.23;;;18.16;50.10
58739;BME280;44512;53.046;18.604;2023-09-19T22:28:19;101279.70;;;17.95;50.35
58739;BME280;44512;53.046;18.604;2023-09-19T22:38:47;101272.39;;;17.78;50.66
58739;BME280;44512;53.046;18.604;2023-09-19T22:49:16;101272.20;;;17.61;50.97
58739;BME280;44512;53.046;18.604;2023-09-19T22:59:44;101274.91;;;17.49;51.38
58739;BME280;44512;53.046;18.604;2023-09-19T23:10:13;101282.01;;;17.38;51.68
58739;BME280;44512;53.046;18.604;2023-09-19T23:20:41;101287.34;;;17.33;51.86
58739;BME280;44512;53.046;18.604;2023-09-19T23:31:10;101292.54;;;17.23;52.21
58739;BME280;44512;53.046;18.604;2023-09-19T23:41:38;101293.08;;;17.13;52.47
58739;BME280;44512;53.046;18.604;2023-09-19T23:52:06;101284.13;;;17.06;52.66
